createdAt,value
2018-01-22T00:01:42.321Z,25.02
2018-01-22T00:04:10.647Z,20.37
2018-01-22T00:06:38.989Z,23.05
2018-01-22T00:09:07.313Z,20.73
2018-01-22T00:11:35.677Z,20.80
2018-01-22T00:14:04.001Z,20.27
2018-01-22T00:16:32.317Z,18.25
2018-01-22T00:19:00.654Z,21.65
2018-01-22T00:21:28.978Z,21.80
2018-01-22T00:23:57.322Z,20.15
2018-01-22T00:26:25.642Z,15.82
2018-01-22T00:28:53.981Z,17.85
2018-01-22T00:31:22.306Z,17.73
2018-01-22T00:33:50.645Z,18.23
2018-01-22T00:36:18.965Z,26.00
2018-01-22T00:38:47.304Z,19.10
2018-01-22T00:41:15.621Z,22.87
2018-01-22T00:43:43.967Z,19.15
2018-01-22T00:46:12.281Z,18.62
2018-01-22T00:48:40.616Z,22.35
2018-01-22T00:51:08.941Z,22.50
2018-01-22T00:53:37.293Z,24.00
2018-01-22T00:56:05.613Z,25.42
2018-01-22T00:58:33.953Z,21.12
2018-01-22T01:01:02.274Z,19.73
2018-01-22T01:03:30.613Z,22.00
2018-01-22T01:05:58.961Z,25.95
2018-01-22T01:08:27.285Z,22.75
2018-01-22T01:10:55.609Z,27.10
2018-01-22T01:13:23.949Z,23.17
2018-01-22T01:15:52.274Z,20.88
2018-01-22T01:18:20.618Z,20.35
2018-01-22T01:20:48.937Z,22.45
2018-01-22T01:23:17.276Z,17.05
2018-01-22T01:25:45.592Z,24.75
2018-01-22T01:28:13.925Z,17.75
2018-01-22T01:30:42.245Z,18.52
2018-01-22T01:33:10.589Z,33.10
2018-01-22T01:35:38.909Z,20.33
2018-01-22T01:38:07.249Z,19.77
2018-01-22T01:40:35.573Z,20.12
2018-01-22T01:43:03.925Z,23.12
2018-01-22T01:45:32.245Z,18.05
2018-01-22T01:48:00.585Z,16.77
2018-01-22T01:50:28.906Z,21.42
2018-01-22T01:52:57.261Z,18.33
2018-01-22T01:55:25.577Z,17.67
2018-01-22T01:57:53.918Z,20.45
2018-01-22T02:00:22.237Z,24.98
2018-01-22T02:02:50.577Z,27.95
2018-01-22T02:05:18.898Z,23.90
2018-01-22T02:07:47.239Z,17.62
2018-01-22T02:10:15.558Z,21.37
2018-01-22T02:12:43.908Z,21.67
2018-01-22T02:15:12.229Z,21.80
2018-01-22T02:17:40.550Z,18.60
2018-01-22T02:20:08.890Z,23.25
2018-01-22T02:22:37.209Z,22.75
2018-01-22T02:25:05.552Z,26.52
2018-01-22T02:27:33.877Z,19.67
2018-01-22T02:30:02.230Z,20.70
2018-01-22T02:32:30.573Z,31.30
2018-01-22T02:34:58.914Z,16.37
2018-01-22T02:37:27.294Z,16.27
2018-01-22T02:39:55.614Z,17.25
2018-01-22T02:42:23.933Z,17.60
2018-01-22T02:44:52.269Z,17.42
2018-01-22T02:47:20.589Z,18.62
2018-01-22T02:49:48.925Z,17.87
2018-01-22T02:52:17.241Z,25.00
2018-01-22T02:54:45.581Z,14.05
2018-01-22T02:57:13.906Z,18.35
2018-01-22T02:59:42.246Z,18.40
2018-01-22T03:02:10.563Z,19.45
2018-01-22T03:04:38.905Z,13.95
2018-01-22T03:07:07.221Z,18.10
2018-01-22T03:09:35.558Z,23.92
2018-01-22T03:12:03.877Z,12.75
2018-01-22T03:14:32.217Z,17.33
2018-01-22T03:17:00.533Z,24.80
2018-01-22T03:19:28.869Z,15.43
2018-01-22T03:21:57.186Z,13.15
2018-01-22T03:24:25.526Z,10.50
2018-01-22T03:26:53.845Z,15.23
2018-01-22T03:29:22.185Z,11.88
2018-01-22T03:31:50.505Z,18.95
2018-01-22T03:34:18.843Z,15.35
2018-01-22T03:36:47.161Z,21.12
2018-01-22T03:39:15.501Z,16.80
2018-01-22T03:41:43.822Z,18.58
2018-01-22T03:44:12.251Z,15.00
2018-01-22T03:46:40.549Z,18.40
2018-01-22T03:49:08.889Z,11.95
2018-01-22T03:51:37.206Z,12.85
2018-01-22T03:54:05.546Z,12.52
2018-01-22T03:56:33.869Z,15.02
2018-01-22T03:59:02.211Z,12.05
2018-01-22T04:01:30.530Z,14.82
2018-01-22T04:03:58.854Z,14.10
2018-01-22T04:06:27.186Z,13.98
2018-01-22T04:08:55.505Z,18.85
2018-01-22T04:11:23.841Z,9.30
2018-01-22T04:13:52.156Z,13.70
2018-01-22T04:16:20.540Z,10.82
2018-01-22T04:18:48.842Z,11.57
2018-01-22T04:21:17.177Z,11.60
2018-01-22T04:23:45.502Z,12.02
2018-01-22T04:26:13.842Z,9.50
2018-01-22T04:28:42.153Z,11.12
2018-01-22T04:31:10.496Z,8.18
2018-01-22T04:33:38.801Z,8.63
2018-01-22T04:36:07.141Z,18.58
2018-01-22T04:38:35.457Z,6.55
2018-01-22T04:41:03.803Z,8.07
2018-01-22T04:43:32.109Z,7.35
2018-01-22T04:46:00.441Z,8.43
2018-01-22T04:48:28.759Z,11.88
2018-01-22T04:50:57.089Z,12.65
2018-01-22T04:53:25.410Z,12.32
2018-01-22T04:55:53.749Z,7.07
2018-01-22T04:58:22.062Z,8.90
2018-01-22T05:00:50.393Z,8.95
2018-01-22T05:03:18.705Z,7.00
2018-01-22T05:05:47.048Z,9.30
2018-01-22T05:08:15.362Z,9.18
2018-01-22T05:10:43.706Z,11.25
2018-01-22T05:13:12.027Z,8.43
2018-01-22T05:15:40.369Z,6.60
2018-01-22T05:18:08.699Z,11.70
2018-01-22T05:20:37.042Z,8.15
2018-01-22T05:23:05.354Z,8.40
2018-01-22T05:25:33.689Z,7.18
2018-01-22T05:28:02.002Z,7.87
2018-01-22T05:30:30.334Z,8.50
2018-01-22T05:32:58.649Z,13.27
2018-01-22T05:35:26.998Z,13.13
2018-01-22T05:37:55.314Z,9.65
2018-01-22T05:40:23.650Z,10.70
2018-01-22T05:42:51.968Z,7.35
2018-01-22T05:45:20.297Z,8.05
2018-01-22T05:47:48.619Z,17.43
2018-01-22T05:50:16.956Z,7.10
2018-01-22T05:52:45.269Z,7.37
2018-01-22T05:55:13.602Z,9.48
2018-01-22T05:57:41.911Z,5.57
2018-01-22T06:00:10.253Z,10.37
2018-01-22T06:02:38.561Z,6.20
2018-01-22T06:05:06.891Z,17.73
2018-01-22T06:07:35.229Z,7.95
2018-01-22T06:10:03.553Z,9.73
2018-01-22T06:12:31.887Z,11.03
2018-01-22T06:15:00.212Z,6.97
2018-01-22T06:17:28.554Z,11.23
2018-01-22T06:19:56.877Z,23.38
2018-01-22T06:22:37.334Z,7.35
2018-01-22T06:25:23.918Z,6.40
2018-01-22T06:27:54.090Z,5.70
2018-01-22T06:30:22.437Z,7.37
2018-01-22T06:32:50.749Z,6.87
2018-01-22T06:35:19.058Z,6.23
2018-01-22T06:37:47.398Z,6.53
2018-01-22T06:40:15.718Z,4.68
2018-01-22T06:42:44.047Z,6.43
2018-01-22T06:45:12.368Z,5.97
2018-01-22T06:47:40.704Z,8.95
2018-01-22T06:50:09.015Z,5.03
2018-01-22T06:52:37.346Z,6.00
2018-01-22T06:55:05.671Z,4.20
2018-01-22T06:57:34.002Z,7.00
2018-01-22T07:00:02.332Z,7.67
2018-01-22T07:02:30.658Z,11.65
2018-01-22T07:04:58.971Z,4.43
2018-01-22T07:07:27.293Z,7.03
2018-01-22T07:09:55.608Z,4.97
2018-01-22T07:12:23.945Z,5.03
2018-01-22T07:14:52.258Z,6.82
2018-01-22T07:17:20.591Z,5.50
2018-01-22T07:19:48.902Z,7.35
2018-01-22T07:22:17.233Z,6.33
2018-01-22T07:24:45.559Z,5.35
2018-01-22T07:27:13.890Z,7.90
2018-01-22T07:29:42.282Z,7.03
2018-01-22T07:32:10.654Z,5.10
2018-01-22T07:34:38.973Z,7.87
2018-01-22T07:37:07.298Z,6.78
2018-01-22T07:39:35.609Z,5.10
2018-01-22T07:42:03.937Z,5.40
2018-01-22T07:44:32.255Z,4.17
2018-01-22T07:47:00.763Z,6.28
2018-01-22T07:49:29.077Z,6.07
2018-01-22T07:51:57.410Z,6.47
2018-01-22T07:54:25.725Z,7.10
2018-01-22T07:56:54.069Z,5.47
2018-01-22T07:59:22.402Z,5.60
2018-01-22T08:01:50.743Z,4.90
2018-01-22T08:04:19.052Z,7.70
2018-01-22T08:06:47.577Z,7.30
2018-01-22T08:09:15.886Z,8.27
2018-01-22T08:11:44.229Z,4.83
2018-01-22T08:14:12.542Z,5.73
2018-01-22T08:16:40.866Z,6.13
2018-01-22T08:19:09.213Z,4.67
2018-01-22T08:21:37.842Z,7.15
2018-01-22T08:24:06.191Z,6.77
2018-01-22T08:26:34.550Z,4.05
2018-01-22T08:29:02.857Z,5.43
2018-01-22T08:31:31.218Z,10.43
2018-01-22T08:33:59.534Z,7.33
2018-01-22T08:36:27.856Z,6.13
2018-01-22T08:38:56.191Z,6.85
2018-01-22T08:41:24.567Z,5.73
2018-01-22T08:43:52.910Z,5.70
2018-01-22T08:46:21.309Z,4.50
2018-01-22T08:48:49.641Z,8.10
2018-01-22T08:51:17.955Z,7.80
2018-01-22T08:53:46.290Z,6.80
2018-01-22T08:56:14.610Z,8.15
2018-01-22T08:58:42.929Z,3.50
2018-01-22T09:01:11.242Z,6.18
2018-01-22T09:03:39.581Z,5.53
2018-01-22T09:06:07.890Z,6.40
2018-01-22T09:08:36.217Z,4.72
2018-01-22T09:11:04.530Z,4.07
2018-01-22T09:13:32.862Z,3.22
2018-01-22T09:16:01.175Z,2.75
2018-01-22T09:18:29.498Z,3.78
2018-01-22T09:20:57.806Z,4.55
2018-01-22T09:23:26.138Z,5.40
2018-01-22T09:25:54.446Z,3.70
2018-01-22T09:28:22.773Z,5.75
2018-01-22T09:30:51.096Z,6.12
2018-01-22T09:33:19.416Z,4.68
2018-01-22T09:35:47.729Z,3.47
2018-01-22T09:38:16.062Z,3.33
2018-01-22T09:40:44.370Z,3.35
2018-01-22T09:43:12.698Z,3.05
2018-01-22T09:45:41.017Z,2.85
2018-01-22T09:48:09.405Z,3.22
2018-01-22T09:50:37.701Z,4.37
2018-01-22T09:53:06.037Z,5.75
2018-01-22T09:55:34.345Z,4.50
2018-01-22T09:58:02.678Z,5.68
2018-01-22T10:00:30.986Z,3.67
2018-01-22T10:02:59.318Z,2.87
2018-01-22T10:05:27.632Z,2.80
2018-01-22T10:07:55.967Z,3.53
2018-01-22T10:10:24.278Z,3.30
2018-01-22T10:12:52.610Z,3.22
2018-01-22T10:15:20.922Z,3.92
2018-01-22T10:17:49.245Z,2.95
2018-01-22T10:20:17.558Z,3.85
2018-01-22T10:22:45.887Z,2.08
2018-01-22T10:25:14.193Z,3.95
2018-01-22T10:27:42.526Z,2.67
2018-01-22T10:30:10.846Z,3.92
2018-01-22T10:32:39.157Z,5.80
2018-01-22T10:35:07.491Z,2.75
2018-01-22T10:37:35.808Z,2.47
2018-01-22T10:40:04.130Z,3.58
2018-01-22T10:42:32.438Z,5.80
2018-01-22T10:45:00.771Z,5.40
2018-01-22T10:47:29.075Z,6.18
2018-01-22T10:49:57.410Z,5.97
2018-01-22T10:52:25.725Z,3.40
2018-01-22T10:54:54.077Z,3.10
2018-01-22T10:57:22.387Z,6.53
2018-01-22T10:59:50.723Z,3.80
2018-01-22T11:02:19.018Z,2.58
2018-01-22T11:04:47.349Z,5.55
2018-01-22T11:07:15.655Z,8.15
2018-01-22T11:09:43.990Z,3.80
2018-01-22T11:12:12.307Z,4.55
2018-01-22T11:14:40.638Z,3.22
2018-01-22T11:17:08.942Z,2.83
2018-01-22T11:19:37.265Z,4.37
2018-01-22T11:22:05.573Z,2.97
2018-01-22T11:24:33.905Z,4.30
2018-01-22T11:27:02.294Z,3.23
2018-01-22T11:29:30.670Z,3.53
2018-01-22T11:31:58.976Z,5.30
2018-01-22T11:34:27.315Z,3.12
2018-01-22T11:36:55.664Z,3.20
2018-01-22T11:39:23.941Z,5.03
2018-01-22T11:41:52.777Z,3.50
2018-01-22T11:44:21.105Z,5.50
2018-01-22T11:46:49.413Z,6.20
2018-01-22T11:49:17.790Z,5.40
2018-01-22T11:51:46.099Z,5.47
2018-01-22T11:54:14.438Z,9.07
2018-01-22T11:56:42.817Z,6.62
2018-01-22T11:59:11.150Z,5.40
2018-01-22T12:01:39.454Z,5.67
2018-01-22T12:04:07.785Z,4.57
2018-01-22T12:06:36.093Z,8.00
2018-01-22T12:09:04.531Z,4.45
2018-01-22T12:11:32.877Z,4.57
2018-01-22T12:14:01.210Z,8.73
2018-01-22T12:16:29.522Z,8.10
2018-01-22T12:18:57.854Z,17.77
2018-01-22T12:21:26.185Z,6.37
2018-01-22T12:23:54.521Z,15.93
2018-01-22T12:26:23.807Z,6.63
2018-01-22T12:28:52.129Z,6.93
2018-01-22T12:31:20.510Z,8.02
2018-01-22T12:33:48.850Z,5.63
2018-01-22T12:36:17.153Z,8.05
2018-01-22T12:38:45.532Z,9.57
2018-01-22T12:41:13.909Z,7.00
2018-01-22T12:43:42.285Z,6.00
2018-01-22T12:46:10.665Z,7.23
2018-01-22T12:48:38.977Z,6.43
2018-01-22T12:51:07.313Z,6.90
2018-01-22T12:53:35.701Z,10.00
2018-01-22T12:56:04.034Z,6.60
2018-01-22T12:58:32.341Z,13.63
2018-01-22T13:01:00.725Z,10.93
2018-01-22T13:03:29.101Z,8.33
2018-01-22T13:05:57.445Z,12.00
2018-01-22T13:08:25.861Z,10.43
2018-01-22T13:10:54.205Z,18.03
2018-01-22T13:13:22.617Z,17.00
2018-01-22T13:15:50.998Z,19.02
2018-01-22T13:18:19.314Z,18.43
2018-01-22T13:20:47.741Z,28.80
2018-01-22T13:23:16.066Z,23.80
2018-01-22T13:25:45.310Z,25.30
2018-01-22T13:28:13.647Z,31.25
2018-01-22T13:30:42.081Z,27.67
2018-01-22T13:33:10.409Z,25.25
2018-01-22T13:35:38.809Z,36.33
2018-01-22T13:38:07.305Z,22.67
2018-01-22T13:43:47.682Z,50.95
2018-01-22T13:46:16.026Z,42.40
2018-01-22T13:48:44.361Z,28.83
2018-01-22T13:51:12.701Z,28.48
2018-01-22T13:53:41.093Z,26.30
2018-01-22T13:56:09.445Z,23.23
2018-01-22T13:58:37.777Z,30.85
2018-01-22T14:01:06.126Z,29.50
2018-01-22T14:03:34.453Z,37.00
2018-01-22T14:06:02.809Z,27.70
2018-01-22T14:08:31.153Z,28.47
2018-01-22T14:10:59.529Z,30.53
2018-01-22T14:13:27.858Z,36.05
2018-01-22T14:15:56.209Z,31.10
2018-01-22T14:18:24.537Z,43.43
2018-01-22T14:20:52.982Z,32.73
2018-01-22T14:23:21.317Z,33.27
2018-01-22T14:25:49.697Z,29.20
2018-01-22T14:28:18.023Z,26.23
2018-01-22T14:30:46.413Z,29.57
2018-01-22T14:33:14.741Z,32.20
2018-01-22T14:35:43.198Z,34.40
2018-01-22T14:38:11.569Z,36.35
2018-01-22T14:40:39.949Z,30.80
2018-01-22T14:43:08.273Z,27.40
2018-01-22T14:45:36.626Z,37.37
2018-01-22T14:48:04.949Z,35.87
2018-01-22T14:50:33.297Z,33.00
2018-01-22T14:53:01.781Z,26.23
2018-01-22T14:55:30.523Z,36.77
2018-01-22T14:57:58.893Z,36.00
2018-01-22T15:00:27.247Z,38.75
2018-01-22T15:02:55.840Z,30.27
2018-01-22T15:05:24.202Z,37.50
2018-01-22T15:07:52.613Z,30.90
2018-01-22T15:10:20.954Z,29.80
2018-01-22T15:12:49.361Z,29.50
2018-01-22T15:15:17.753Z,31.70
2018-01-22T15:17:46.126Z,43.17
2018-01-22T15:20:14.462Z,36.43
2018-01-22T15:22:42.806Z,47.97
2018-01-22T15:25:11.132Z,35.03
2018-01-22T15:27:39.481Z,38.28
2018-01-22T15:30:07.853Z,29.42
2018-01-22T15:32:36.237Z,35.60
2018-01-22T15:35:04.642Z,34.03
2018-01-22T15:37:32.989Z,27.53
2018-01-22T15:40:01.322Z,26.57
2018-01-22T15:42:29.669Z,41.42
2018-01-22T15:44:58.066Z,44.50
2018-01-22T15:47:26.441Z,31.73
2018-01-22T15:49:54.774Z,36.33
2018-01-22T15:52:23.194Z,33.17
2018-01-22T15:54:51.570Z,34.75
2018-01-22T15:57:19.930Z,37.60
2018-01-22T15:59:48.259Z,37.07
2018-01-22T16:02:16.609Z,38.03
2018-01-22T16:04:44.984Z,35.00
2018-01-22T16:07:13.353Z,35.87
2018-01-22T16:09:41.682Z,50.33
2018-01-22T16:12:10.029Z,26.37
2018-01-22T16:14:38.373Z,41.53
2018-01-22T16:17:06.722Z,36.23
2018-01-22T16:19:35.141Z,42.90
2018-01-22T16:22:03.489Z,34.10
2018-01-22T16:24:31.889Z,33.33
2018-01-22T16:27:00.274Z,42.10
2018-01-22T16:29:28.597Z,24.33
2018-01-22T16:31:56.949Z,37.00
2018-01-22T16:34:25.404Z,53.33
2018-01-22T16:36:53.774Z,51.15
2018-01-22T16:39:22.102Z,43.60
2018-01-22T16:41:50.450Z,36.43
2018-01-22T16:44:18.778Z,50.30
2018-01-22T16:46:52.805Z,43.87
2018-01-22T16:49:21.129Z,45.23
2018-01-22T16:51:49.581Z,37.60
2018-01-22T16:54:17.910Z,43.13
2018-01-22T16:56:46.332Z,55.50
2018-01-22T16:59:15.521Z,41.78
2018-01-22T17:01:43.903Z,40.83
2018-01-22T17:04:12.409Z,37.17
2018-01-22T17:06:40.762Z,34.83
2018-01-22T17:09:09.085Z,38.53
2018-01-22T17:11:37.522Z,51.30
2018-01-22T17:14:05.853Z,43.60
2018-01-22T17:16:34.702Z,56.60
2018-01-22T17:19:03.061Z,40.77
2018-01-22T17:21:31.477Z,40.97
2018-01-22T17:23:59.817Z,44.73
2018-01-22T17:26:29.192Z,40.40
2018-01-22T17:28:58.261Z,36.03
2018-01-22T17:31:26.674Z,57.23
2018-01-22T17:33:55.054Z,39.33
2018-01-22T17:36:24.273Z,41.83
2018-01-22T17:38:52.734Z,41.50
2018-01-22T17:41:21.069Z,34.33
2018-01-22T17:43:49.512Z,43.33
2018-01-22T17:46:18.885Z,40.57
2018-01-22T17:48:47.270Z,42.57
2018-01-22T17:51:15.655Z,54.47
2018-01-22T17:53:44.017Z,54.40
2018-01-22T17:56:12.340Z,52.67
2018-01-22T17:58:40.689Z,44.70
2018-01-22T18:01:09.040Z,51.65
2018-01-22T18:03:37.401Z,70.17
2018-01-22T18:06:05.734Z,43.60
2018-01-22T18:08:34.077Z,70.20
2018-01-22T18:11:02.422Z,50.33
2018-01-22T18:13:30.767Z,58.33
2018-01-22T18:15:59.090Z,44.43
2018-01-22T18:18:27.497Z,62.87
2018-01-22T18:20:55.989Z,50.42
2018-01-22T18:23:24.339Z,60.67
2018-01-22T18:25:52.718Z,82.50
2018-01-22T18:28:21.350Z,60.67
2018-01-22T18:30:49.922Z,55.30
2018-01-22T18:33:18.265Z,44.37
2018-01-22T18:35:46.628Z,65.07
2018-01-22T18:38:14.977Z,68.03
2018-01-22T18:40:43.305Z,58.17
2018-01-22T18:43:11.806Z,52.92
2018-01-22T18:45:40.501Z,57.07
2018-01-22T18:48:08.870Z,51.35
2018-01-22T18:50:37.198Z,53.57
2018-01-22T18:53:05.553Z,44.03
2018-01-22T18:55:33.877Z,62.33
2018-01-22T18:58:02.229Z,44.95
2018-01-22T19:00:30.561Z,50.87
2018-01-22T19:02:58.915Z,64.70
2018-01-22T19:05:27.250Z,54.40
2018-01-22T19:07:55.729Z,54.15
2018-01-22T19:10:24.063Z,49.80
2018-01-22T19:12:52.489Z,47.92
2018-01-22T19:15:20.813Z,51.20
2018-01-22T19:17:49.254Z,63.80
2018-01-22T19:20:17.621Z,53.57
2018-01-22T19:22:45.968Z,43.45
2018-01-22T19:25:14.382Z,58.67
2018-01-22T19:27:42.737Z,61.70
2018-01-22T19:30:11.090Z,58.47
2018-01-22T19:32:39.417Z,50.77
2018-01-22T19:35:07.770Z,53.17
2018-01-22T19:37:36.130Z,59.57
2018-01-22T19:40:04.457Z,46.28
2018-01-22T19:42:32.789Z,52.53
2018-01-22T19:45:01.144Z,52.70
2018-01-22T19:47:29.565Z,36.03
2018-01-22T19:49:57.917Z,57.88
2018-01-22T19:52:26.241Z,44.77
2018-01-22T19:54:54.697Z,47.63
2018-01-22T19:57:23.026Z,72.90
2018-01-22T19:59:51.454Z,45.30
2018-01-22T20:02:19.786Z,51.40
2018-01-22T20:04:48.194Z,43.15
2018-01-22T20:07:16.577Z,32.50
2018-01-22T20:09:45.010Z,42.13
2018-01-22T20:12:13.330Z,59.08
2018-01-22T20:14:41.717Z,64.60
2018-01-22T20:17:10.298Z,49.03
2018-01-22T20:19:38.757Z,49.08
2018-01-22T20:22:07.157Z,44.77
2018-01-22T20:24:35.501Z,82.72
2018-01-22T20:27:03.920Z,50.83
2018-01-22T20:29:32.385Z,52.47
2018-01-22T20:32:00.734Z,49.97
2018-01-22T20:34:29.081Z,48.47
2018-01-22T20:36:57.422Z,49.93
2018-01-22T20:39:25.778Z,46.23
2018-01-22T20:41:54.169Z,45.60
2018-01-22T20:44:22.545Z,45.28
2018-01-22T20:46:51.474Z,42.95
2018-01-22T20:49:19.826Z,55.53
2018-01-22T20:51:48.189Z,49.33
2018-01-22T20:54:16.574Z,49.28
2018-01-22T20:56:44.901Z,49.17
2018-01-22T20:59:13.253Z,76.15
2018-01-22T21:01:41.576Z,46.15
2018-01-22T21:04:09.926Z,42.83
2018-01-22T21:06:39.101Z,63.90
2018-01-22T21:09:07.560Z,45.37
2018-01-22T21:11:35.886Z,57.87
2018-01-22T21:14:04.314Z,77.00
2018-01-22T21:16:32.685Z,51.25
2018-01-22T21:19:01.125Z,45.33
2018-01-22T21:21:30.588Z,67.70
2018-01-22T21:23:58.950Z,48.47
2018-01-22T21:26:27.277Z,57.43
2018-01-22T21:28:55.630Z,49.90
2018-01-22T21:31:23.973Z,48.57
2018-01-22T21:33:52.349Z,60.67
2018-01-22T21:36:21.641Z,47.43
2018-01-22T21:38:49.970Z,52.97
2018-01-22T21:41:18.397Z,86.93
2018-01-22T21:43:46.726Z,36.60
2018-01-22T21:46:15.149Z,56.10
2018-01-22T21:48:43.533Z,49.53
2018-01-22T21:51:11.924Z,54.20
2018-01-22T21:53:40.245Z,56.60
2018-01-22T21:56:08.661Z,37.88
2018-01-22T21:58:36.985Z,62.85
2018-01-22T22:01:05.417Z,50.35
2018-01-22T22:03:33.743Z,67.37
2018-01-22T22:06:02.173Z,51.77
2018-01-22T22:08:30.545Z,55.40
2018-01-22T22:10:58.898Z,52.60
2018-01-22T22:13:27.234Z,54.22
2018-01-22T22:15:56.582Z,59.97
2018-01-22T22:18:24.973Z,49.97
2018-01-22T22:20:53.353Z,41.33
2018-01-22T22:23:21.733Z,82.75
2018-01-22T22:25:50.109Z,63.80
2018-01-22T22:28:18.445Z,63.20
2018-01-22T22:30:46.790Z,50.03
2018-01-22T22:33:15.117Z,67.97
2018-01-22T22:35:43.476Z,88.97
2018-01-22T22:38:11.794Z,69.60
2018-01-22T22:40:40.142Z,58.30
2018-01-22T22:43:08.469Z,59.27
2018-01-22T22:45:36.974Z,53.93
2018-01-22T22:48:05.281Z,62.03
2018-01-22T22:50:33.674Z,57.00
2018-01-22T22:53:02.005Z,76.97
2018-01-22T22:55:30.362Z,71.60
2018-01-22T22:57:58.685Z,65.70
2018-01-22T23:00:27.034Z,64.35
2018-01-22T23:02:55.457Z,57.70
2018-01-22T23:05:23.861Z,60.00
2018-01-22T23:07:52.185Z,69.35
2018-01-22T23:10:20.525Z,54.47
2018-01-22T23:12:48.970Z,69.35
2018-01-22T23:15:17.322Z,71.82
2018-01-22T23:17:45.717Z,71.62
2018-01-22T23:20:14.061Z,47.30
2018-01-22T23:22:42.386Z,50.70
2018-01-22T23:25:10.737Z,82.78
2018-01-22T23:27:39.125Z,47.22
2018-01-22T23:30:07.469Z,57.40
2018-01-22T23:32:35.882Z,86.70
2018-01-22T23:35:04.241Z,61.95
2018-01-22T23:37:32.561Z,82.40
2018-01-22T23:40:00.885Z,56.72
2018-01-22T23:42:29.242Z,80.55
2018-01-22T23:44:57.562Z,57.72
2018-01-22T23:47:25.910Z,70.43
2018-01-22T23:49:54.260Z,78.00
2018-01-22T23:52:22.601Z,84.13
2018-01-22T23:54:50.925Z,70.68
2018-01-22T23:57:19.290Z,69.00
2018-01-22T23:59:47.617Z,51.78
